AAL325 KPHX-KSNA
Flight info
| Callsign | AAL325 |
|---|---|
| Flight time | N/A |
| Altitude | 38000 |
| Route | KEENS3 HRRBR EMLLD DSNEE6 |
| Aircraft | A320/M-SDE3FGHIRWY/LB1 |
Departure
| Time | 2026-05-04 02:34 |
|---|---|
| Airport | Phoenix Sky Harbor International Airport (KPHX) |
Arrival
| Time | N/A |
|---|---|
| Airport | John Wayne Orange County International Airport (KSNA) |
| Time | Latitude | Longitude | Altitude | Speed | Heading |
|---|---|---|---|---|---|
| 2026-05-04 02:09 | 33.43708 | -111.99625 | 1145 ft | 0 kts | 269° |
| 2026-05-04 02:23 | 33.43708 | -111.99620 | 1145 ft | 2 kts | 267° |
| 2026-05-04 02:23 | 33.43708 | -111.99602 | 1145 ft | 2 kts | 288° |
| 2026-05-04 02:23 | 33.43700 | -111.99586 | 1145 ft | 2 kts | 321° |
| 2026-05-04 02:24 | 33.43687 | -111.99579 | 1145 ft | 1 kts | 353° |
| 2026-05-04 02:24 | 33.43680 | -111.99579 | 1145 ft | 1 kts | 3° |
| 2026-05-04 02:24 | 33.43677 | -111.99579 | 1145 ft | 0 kts | 1° |
| 2026-05-04 02:26 | 33.43732 | -111.99577 | 1145 ft | 17 kts | 0° |
| 2026-05-04 02:26 | 33.43861 | -111.99573 | 1145 ft | 19 kts | 13° |
| 2026-05-04 02:27 | 33.43908 | -111.99509 | 1145 ft | 11 kts | 82° |
| 2026-05-04 02:27 | 33.43905 | -111.99355 | 1145 ft | 22 kts | 95° |
| 2026-05-04 02:27 | 33.43793 | -111.99229 | 1145 ft | 26 kts | 174° |
| 2026-05-04 02:27 | 33.43598 | -111.99239 | 1145 ft | 29 kts | 180° |
| 2026-05-04 02:28 | 33.43405 | -111.99248 | 1145 ft | 24 kts | 187° |
| 2026-05-04 02:28 | 33.43365 | -111.99252 | 1145 ft | 0 kts | 183° |
| 2026-05-04 02:28 | 33.43363 | -111.99252 | 1145 ft | 3 kts | 182° |
| 2026-05-04 02:28 | 33.43295 | -111.99250 | 1145 ft | 10 kts | 180° |
| 2026-05-04 02:29 | 33.43217 | -111.99262 | 1145 ft | 12 kts | 207° |
| 2026-05-04 02:29 | 33.43206 | -111.99270 | 1145 ft | 0 kts | 212° |
| 2026-05-04 02:30 | 33.43197 | -111.99277 | 1145 ft | 7 kts | 214° |
| 2026-05-04 02:30 | 33.43119 | -111.99354 | 1145 ft | 14 kts | 223° |
| 2026-05-04 02:31 | 33.43103 | -111.99410 | 1145 ft | 0 kts | 264° |
| 2026-05-04 02:33 | 33.43100 | -111.99455 | 1145 ft | 23 kts | 267° |
| 2026-05-04 02:33 | 33.43099 | -112.00001 | 1145 ft | 105 kts | 270° |
| 2026-05-04 02:34 | 33.43092 | -112.01157 | 1170 ft | 166 kts | 268° |
| 2026-05-04 02:34 | 33.43139 | -112.02541 | 1931 ft | 169 kts | 270° |
| 2026-05-04 02:34 | 33.43200 | -112.03914 | 2789 ft | 169 kts | 268° |
| 2026-05-04 02:34 | 33.43266 | -112.05334 | 3500 ft | 178 kts | 266° |
| 2026-05-04 02:35 | 33.43227 | -112.06836 | 4071 ft | 189 kts | 252° |
| 2026-05-04 02:35 | 33.42775 | -112.08366 | 4566 ft | 206 kts | 244° |
| 2026-05-04 02:35 | 33.42265 | -112.10075 | 5065 ft | 227 kts | 244° |
| 2026-05-04 02:35 | 33.41661 | -112.11849 | 5810 ft | 238 kts | 243° |
| 2026-05-04 02:36 | 33.41021 | -112.13746 | 6403 ft | 256 kts | 244° |
| 2026-05-04 02:36 | 33.40350 | -112.15783 | 7016 ft | 271 kts | 245° |
| 2026-05-04 02:36 | 33.39668 | -112.17905 | 7802 ft | 278 kts | 245° |
| 2026-05-04 02:36 | 33.39221 | -112.20174 | 8643 ft | 289 kts | 266° |
| 2026-05-04 02:37 | 33.39489 | -112.22543 | 9514 ft | 296 kts | 276° |
| 2026-05-04 02:37 | 33.39858 | -112.24991 | 10284 ft | 304 kts | 276° |
| 2026-05-04 02:37 | 33.40234 | -112.27549 | 10767 ft | 321 kts | 276° |
| 2026-05-04 02:37 | 33.40627 | -112.30205 | 11488 ft | 329 kts | 276° |
| 2026-05-04 02:38 | 33.41028 | -112.32903 | 12378 ft | 331 kts | 276° |
| 2026-05-04 02:38 | 33.41163 | -112.33814 | 12707 ft | 330 kts | 276° |
| 2026-05-04 02:38 | 33.41562 | -112.36516 | 13553 ft | 332 kts | 276° |
| 2026-05-04 02:38 | 33.41965 | -112.39243 | 14482 ft | 331 kts | 276° |
| 2026-05-04 02:39 | 33.42361 | -112.41929 | 15357 ft | 329 kts | 276° |
| 2026-05-04 02:39 | 33.42750 | -112.44569 | 16210 ft | 328 kts | 276° |
| 2026-05-04 02:39 | 33.43142 | -112.47237 | 17024 ft | 327 kts | 276° |
| 2026-05-04 02:39 | 33.43537 | -112.49931 | 17740 ft | 329 kts | 276° |
| 2026-05-04 02:40 | 33.43928 | -112.52593 | 18496 ft | 329 kts | 276° |
| 2026-05-04 02:40 | 33.44324 | -112.55299 | 19215 ft | 330 kts | 277° |
| 2026-05-04 02:40 | 33.44722 | -112.58017 | 19879 ft | 332 kts | 276° |
| 2026-05-04 02:40 | 33.45010 | -112.60772 | 20505 ft | 333 kts | 271° |
| 2026-05-04 02:41 | 33.45070 | -112.63538 | 21247 ft | 330 kts | 269° |
| 2026-05-04 02:41 | 33.45102 | -112.66263 | 21896 ft | 331 kts | 269° |
| 2026-05-04 02:41 | 33.45139 | -112.69035 | 22486 ft | 334 kts | 269° |
| 2026-05-04 02:41 | 33.45176 | -112.71824 | 23083 ft | 335 kts | 269° |
| 2026-05-04 02:42 | 33.45212 | -112.74625 | 23650 ft | 338 kts | 269° |
| 2026-05-04 02:42 | 33.45248 | -112.77409 | 24223 ft | 339 kts | 269° |
| 2026-05-04 02:42 | 33.45404 | -112.80269 | 24823 ft | 341 kts | 275° |
| 2026-05-04 02:42 | 33.45851 | -112.83039 | 25396 ft | 342 kts | 279° |
| 2026-05-04 02:43 | 33.46380 | -112.85822 | 25864 ft | 345 kts | 278° |
| 2026-05-04 02:43 | 33.46904 | -112.88612 | 26329 ft | 347 kts | 279° |
| 2026-05-04 02:43 | 33.47434 | -112.91442 | 26823 ft | 348 kts | 278° |
| 2026-05-04 02:43 | 33.47960 | -112.94264 | 27293 ft | 350 kts | 279° |
| 2026-05-04 02:44 | 33.48489 | -112.97101 | 27777 ft | 350 kts | 278° |
| 2026-05-04 02:44 | 33.49022 | -112.99963 | 28234 ft | 351 kts | 278° |
| 2026-05-04 02:44 | 33.49557 | -113.02840 | 28599 ft | 355 kts | 279° |
| 2026-05-04 02:44 | 33.50095 | -113.05733 | 29012 ft | 356 kts | 278° |
| 2026-05-04 02:45 | 33.50626 | -113.08595 | 29503 ft | 355 kts | 278° |
| 2026-05-04 02:45 | 33.51163 | -113.11492 | 29907 ft | 355 kts | 278° |
| 2026-05-04 02:45 | 33.51693 | -113.14357 | 30370 ft | 353 kts | 278° |
| 2026-05-04 02:45 | 33.52219 | -113.17204 | 30835 ft | 351 kts | 279° |
| 2026-05-04 02:46 | 33.52747 | -113.20064 | 31256 ft | 350 kts | 278° |
| 2026-05-04 02:46 | 33.53269 | -113.22897 | 31693 ft | 348 kts | 279° |
| 2026-05-04 02:46 | 33.53781 | -113.25679 | 32083 ft | 346 kts | 278° |
| 2026-05-04 02:46 | 33.54300 | -113.28504 | 32387 ft | 347 kts | 278° |
| 2026-05-04 02:47 | 33.54812 | -113.31295 | 32765 ft | 345 kts | 279° |
| 2026-05-04 02:47 | 33.55327 | -113.34106 | 33075 ft | 344 kts | 279° |
| 2026-05-04 02:47 | 33.55838 | -113.36894 | 33452 ft | 343 kts | 278° |
| 2026-05-04 02:47 | 33.56348 | -113.39684 | 33868 ft | 341 kts | 279° |
| 2026-05-04 02:48 | 33.56852 | -113.42444 | 34289 ft | 339 kts | 277° |
| 2026-05-04 02:48 | 33.57352 | -113.45189 | 34638 ft | 338 kts | 278° |
| 2026-05-04 02:48 | 33.57858 | -113.47970 | 34954 ft | 338 kts | 278° |
| 2026-05-04 02:48 | 33.58355 | -113.50699 | 35330 ft | 336 kts | 278° |
| 2026-05-04 02:49 | 33.58862 | -113.53442 | 35614 ft | 336 kts | 277° |
| 2026-05-04 02:49 | 33.59369 | -113.56144 | 35977 ft | 334 kts | 278° |
| 2026-05-04 02:49 | 33.59875 | -113.58858 | 36297 ft | 333 kts | 278° |
| 2026-05-04 02:49 | 33.60382 | -113.61567 | 36654 ft | 331 kts | 278° |
| 2026-05-04 02:50 | 33.60883 | -113.64258 | 36852 ft | 332 kts | 277° |
| 2026-05-04 02:50 | 33.61384 | -113.66956 | 37064 ft | 333 kts | 277° |
| 2026-05-04 02:50 | 33.61891 | -113.69679 | 37417 ft | 332 kts | 277° |
| 2026-05-04 02:50 | 33.62389 | -113.72369 | 37706 ft | 331 kts | 278° |
| 2026-05-04 02:51 | 33.62892 | -113.75082 | 37899 ft | 332 kts | 276° |
| 2026-05-04 02:51 | 33.63393 | -113.77794 | 37939 ft | 331 kts | 278° |